Selah, Washington
Current Conditions -  °F | °C
As of 3:58 PM on Saturday 25 Oct 2014 (Local Time) from K1YT Reporting Station
Broken Clouds Broken Clouds  
Wind Chill: 54°   Ceiling: 6000
Heat Index: 54°   Visibility: 10mi
Dew Point: 50°   Wind: 6mph
Humidity: 88%   Direction: 150°SSE
Pressure: 29.5"   Gusts: NA
Location:  46.65°N, 120.53°W
Report Text: K1YT 252258Z AUTO 15005KT 10SM BKN060 12/10 A2950 RMK AO2
Loading
Personal Weather Stations






























Interactive Weather Map
Tropical Storm Tracking
New forecast layout! Learn more

10-Day Weather Forecast

Advertisements
Track Severe Weather on mobile